sensor_id;sensor_type;location;lat;lon;timestamp;temperature;humidity
4354;DHT22;11018;51.258;6.806;2023-03-20T00:01:33;9.80;69.50
4354;DHT22;11018;51.258;6.806;2023-03-20T00:03:58;9.80;70.50
4354;DHT22;11018;51.258;6.806;2023-03-20T00:06:26;9.70;69.10
4354;DHT22;11018;51.258;6.806;2023-03-20T00:08:56;9.70;69.70
4354;DHT22;11018;51.258;6.806;2023-03-20T00:14:03;9.50;72.50
4354;DHT22;11018;51.258;6.806;2023-03-20T00:16:35;9.70;72.50
4354;DHT22;11018;51.258;6.806;2023-03-20T00:19:02;9.60;73.30
4354;DHT22;11018;51.258;6.806;2023-03-20T00:21:29;9.60;72.00
4354;DHT22;11018;51.258;6.806;2023-03-20T00:23:55;9.70;71.00
4354;DHT22;11018;51.258;6.806;2023-03-20T00:26:25;9.70;71.00
4354;DHT22;11018;51.258;6.806;2023-03-20T00:28:51;9.70;69.40
4354;DHT22;11018;51.258;6.806;2023-03-20T00:31:26;9.80;69.10
4354;DHT22;11018;51.258;6.806;2023-03-20T00:33:54;9.80;69.50
4354;DHT22;11018;51.258;6.806;2023-03-20T00:36:20;9.60;71.00
4354;DHT22;11018;51.258;6.806;2023-03-20T00:38:46;9.60;71.20
4354;DHT22;11018;51.258;6.806;2023-03-20T00:41:35;9.60;70.00
4354;DHT22;11018;51.258;6.806;2023-03-20T00:44:08;9.60;70.60
4354;DHT22;11018;51.258;6.806;2023-03-20T00:46:39;9.60;69.90
4354;DHT22;11018;51.258;6.806;2023-03-20T00:49:05;9.80;69.10
4354;DHT22;11018;51.258;6.806;2023-03-20T00:51:30;9.70;68.40
4354;DHT22;11018;51.258;6.806;2023-03-20T00:53:56;9.70;67.80
4354;DHT22;11018;51.258;6.806;2023-03-20T00:56:40;9.80;66.20
4354;DHT22;11018;51.258;6.806;2023-03-20T00:59:13;9.70;65.20
4354;DHT22;11018;51.258;6.806;2023-03-20T01:01:39;9.70;65.60
4354;DHT22;11018;51.258;6.806;2023-03-20T01:04:14;9.70;66.10
4354;DHT22;11018;51.258;6.806;2023-03-20T01:06:41;9.70;66.70
4354;DHT22;11018;51.258;6.806;2023-03-20T01:09:06;9.70;66.50
4354;DHT22;11018;51.258;6.806;2023-03-20T01:11:32;9.70;66.20
4354;DHT22;11018;51.258;6.806;2023-03-20T01:13:58;9.70;66.10
4354;DHT22;11018;51.258;6.806;2023-03-20T01:16:25;9.60;67.20
4354;DHT22;11018;51.258;6.806;2023-03-20T01:18:51;9.60;66.80
4354;DHT22;11018;51.258;6.806;2023-03-20T01:21:18;9.60;68.00
4354;DHT22;11018;51.258;6.806;2023-03-20T01:23:44;9.60;69.30
4354;DHT22;11018;51.258;6.806;2023-03-20T01:26:23;9.50;70.80
4354;DHT22;11018;51.258;6.806;2023-03-20T01:28:49;9.40;71.20
4354;DHT22;11018;51.258;6.806;2023-03-20T01:31:16;9.50;70.30
4354;DHT22;11018;51.258;6.806;2023-03-20T01:33:41;9.50;69.00
4354;DHT22;11018;51.258;6.806;2023-03-20T01:36:14;9.50;68.30
4354;DHT22;11018;51.258;6.806;2023-03-20T01:38:40;9.40;70.30
4354;DHT22;11018;51.258;6.806;2023-03-20T01:41:08;9.40;69.30
4354;DHT22;11018;51.258;6.806;2023-03-20T01:43:36;9.50;68.20
4354;DHT22;11018;51.258;6.806;2023-03-20T01:51:55;9.30;71.40
4354;DHT22;11018;51.258;6.806;2023-03-20T01:54:32;9.30;72.00
4354;DHT22;11018;51.258;6.806;2023-03-20T01:57:25;9.20;72.40
4354;DHT22;11018;51.258;6.806;2023-03-20T01:59:59;9.20;73.50
4354;DHT22;11018;51.258;6.806;2023-03-20T02:02:30;8.90;77.40
4354;DHT22;11018;51.258;6.806;2023-03-20T02:05:00;8.90;78.30
4354;DHT22;11018;51.258;6.806;2023-03-20T02:07:27;8.90;78.40
4354;DHT22;11018;51.258;6.806;2023-03-20T02:09:54;8.80;79.90
4354;DHT22;11018;51.258;6.806;2023-03-20T02:12:20;8.70;82.20
4354;DHT22;11018;51.258;6.806;2023-03-20T02:14:47;8.60;83.10
4354;DHT22;11018;51.258;6.806;2023-03-20T02:17:14;8.50;86.70
4354;DHT22;11018;51.258;6.806;2023-03-20T02:22:47;8.70;83.60
4354;DHT22;11018;51.258;6.806;2023-03-20T02:34:03;8.50;86.90
4354;DHT22;11018;51.258;6.806;2023-03-20T02:39:11;8.50;86.50
4354;DHT22;11018;51.258;6.806;2023-03-20T02:41:47;8.30;88.50
4354;DHT22;11018;51.258;6.806;2023-03-20T02:44:28;8.10;93.20
4354;DHT22;11018;51.258;6.806;2023-03-20T02:47:14;8.30;91.40
4354;DHT22;11018;51.258;6.806;2023-03-20T02:52:38;8.40;86.70
4354;DHT22;11018;51.258;6.806;2023-03-20T02:57:51;8.60;85.40
4354;DHT22;11018;51.258;6.806;2023-03-20T03:00:35;8.70;85.00
4354;DHT22;11018;51.258;6.806;2023-03-20T03:03:26;8.70;84.40
4354;DHT22;11018;51.258;6.806;2023-03-20T03:05:58;8.70;83.40
4354;DHT22;11018;51.258;6.806;2023-03-20T03:08:27;8.60;84.90
4354;DHT22;11018;51.258;6.806;2023-03-20T03:11:04;8.50;86.20
4354;DHT22;11018;51.258;6.806;2023-03-20T03:13:32;8.30;89.20
4354;DHT22;11018;51.258;6.806;2023-03-20T03:16:05;8.50;88.80
4354;DHT22;11018;51.258;6.806;2023-03-20T03:18:33;8.40;87.90
4354;DHT22;11018;51.258;6.806;2023-03-20T03:21:01;8.50;87.10
4354;DHT22;11018;51.258;6.806;2023-03-20T03:23:29;8.50;87.40
4354;DHT22;11018;51.258;6.806;2023-03-20T03:25:58;8.40;86.70
4354;DHT22;11018;51.258;6.806;2023-03-20T03:30:55;8.10;92.10
4354;DHT22;11018;51.258;6.806;2023-03-20T03:33:28;8.00;94.50
4354;DHT22;11018;51.258;6.806;2023-03-20T03:36:12;8.10;93.70
4354;DHT22;11018;51.258;6.806;2023-03-20T03:47:17;8.10;91.50
4354;DHT22;11018;51.258;6.806;2023-03-20T03:49:42;8.20;91.40
4354;DHT22;11018;51.258;6.806;2023-03-20T03:52:14;8.30;90.70
4354;DHT22;11018;51.258;6.806;2023-03-20T03:55:10;8.40;89.40
4354;DHT22;11018;51.258;6.806;2023-03-20T03:58:00;8.60;85.60
4354;DHT22;11018;51.258;6.806;2023-03-20T04:00:28;8.70;82.30
4354;DHT22;11018;51.258;6.806;2023-03-20T04:02:57;8.70;82.80
4354;DHT22;11018;51.258;6.806;2023-03-20T04:05:26;8.60;83.10
4354;DHT22;11018;51.258;6.806;2023-03-20T04:07:55;8.80;77.30
4354;DHT22;11018;51.258;6.806;2023-03-20T04:10:22;8.90;75.50
4354;DHT22;11018;51.258;6.806;2023-03-20T04:12:47;8.90;72.40
4354;DHT22;11018;51.258;6.806;2023-03-20T04:15:14;9.00;69.50
4354;DHT22;11018;51.258;6.806;2023-03-20T04:17:41;9.00;68.40
4354;DHT22;11018;51.258;6.806;2023-03-20T04:20:07;8.90;68.80
4354;DHT22;11018;51.258;6.806;2023-03-20T04:22:33;8.80;70.30
4354;DHT22;11018;51.258;6.806;2023-03-20T04:25:00;8.60;71.50
4354;DHT22;11018;51.258;6.806;2023-03-20T04:27:27;8.60;72.60
4354;DHT22;11018;51.258;6.806;2023-03-20T04:29:53;8.60;72.30
4354;DHT22;11018;51.258;6.806;2023-03-20T04:32:19;8.50;73.20
4354;DHT22;11018;51.258;6.806;2023-03-20T04:34:44;8.50;74.60
4354;DHT22;11018;51.258;6.806;2023-03-20T04:37:10;8.60;72.00
4354;DHT22;11018;51.258;6.806;2023-03-20T04:39:35;8.60;71.10
4354;DHT22;11018;51.258;6.806;2023-03-20T04:42:02;8.60;70.40
4354;DHT22;11018;51.258;6.806;2023-03-20T04:44:28;8.60;71.20
4354;DHT22;11018;51.258;6.806;2023-03-20T04:46:54;8.50;71.80
4354;DHT22;11018;51.258;6.806;2023-03-20T04:49:20;8.40;73.00
4354;DHT22;11018;51.258;6.806;2023-03-20T04:51:45;8.30;75.30
4354;DHT22;11018;51.258;6.806;2023-03-20T04:54:11;8.30;75.90
4354;DHT22;11018;51.258;6.806;2023-03-20T04:56:36;8.40;75.10
4354;DHT22;11018;51.258;6.806;2023-03-20T04:59:02;8.40;73.90
4354;DHT22;11018;51.258;6.806;2023-03-20T05:01:27;8.40;74.40
4354;DHT22;11018;51.258;6.806;2023-03-20T05:03:53;8.30;73.90
4354;DHT22;11018;51.258;6.806;2023-03-20T05:06:27;8.30;73.20
4354;DHT22;11018;51.258;6.806;2023-03-20T05:08:53;8.30;74.10
4354;DHT22;11018;51.258;6.806;2023-03-20T05:11:19;8.20;75.30
4354;DHT22;11018;51.258;6.806;2023-03-20T05:13:45;8.20;73.60
4354;DHT22;11018;51.258;6.806;2023-03-20T05:16:11;8.30;71.70
4354;DHT22;11018;51.258;6.806;2023-03-20T05:18:36;8.30;71.40
4354;DHT22;11018;51.258;6.806;2023-03-20T05:21:02;8.20;72.80
4354;DHT22;11018;51.258;6.806;2023-03-20T05:23:28;8.20;73.90
4354;DHT22;11018;51.258;6.806;2023-03-20T05:25:55;8.20;75.10
4354;DHT22;11018;51.258;6.806;2023-03-20T05:28:20;8.20;74.80
4354;DHT22;11018;51.258;6.806;2023-03-20T05:30:46;8.20;75.90
4354;DHT22;11018;51.258;6.806;2023-03-20T05:33:11;8.20;76.40
4354;DHT22;11018;51.258;6.806;2023-03-20T05:35:37;8.30;76.20
4354;DHT22;11018;51.258;6.806;2023-03-20T05:38:02;8.40;75.00
4354;DHT22;11018;51.258;6.806;2023-03-20T05:40:28;8.30;75.10
4354;DHT22;11018;51.258;6.806;2023-03-20T05:42:53;8.20;76.20
4354;DHT22;11018;51.258;6.806;2023-03-20T05:45:19;8.30;76.90
4354;DHT22;11018;51.258;6.806;2023-03-20T05:47:45;8.20;77.90
4354;DHT22;11018;51.258;6.806;2023-03-20T05:50:11;8.10;79.80
4354;DHT22;11018;51.258;6.806;2023-03-20T05:52:36;8.00;81.30
4354;DHT22;11018;51.258;6.806;2023-03-20T05:55:02;8.00;81.70
4354;DHT22;11018;51.258;6.806;2023-03-20T05:57:28;8.10;80.90
4354;DHT22;11018;51.258;6.806;2023-03-20T05:59:53;8.20;79.20
4354;DHT22;11018;51.258;6.806;2023-03-20T06:02:19;8.30;78.60
4354;DHT22;11018;51.258;6.806;2023-03-20T06:04:44;8.30;78.70
4354;DHT22;11018;51.258;6.806;2023-03-20T06:07:10;8.20;79.70
4354;DHT22;11018;51.258;6.806;2023-03-20T06:09:36;8.30;80.10
4354;DHT22;11018;51.258;6.806;2023-03-20T06:12:01;8.50;77.40
4354;DHT22;11018;51.258;6.806;2023-03-20T06:14:27;8.40;76.50
4354;DHT22;11018;51.258;6.806;2023-03-20T06:16:53;8.40;77.40
4354;DHT22;11018;51.258;6.806;2023-03-20T06:19:20;8.40;78.70
4354;DHT22;11018;51.258;6.806;2023-03-20T06:21:46;8.30;78.60
4354;DHT22;11018;51.258;6.806;2023-03-20T06:24:12;8.40;78.90
4354;DHT22;11018;51.258;6.806;2023-03-20T06:26:37;8.50;75.60
4354;DHT22;11018;51.258;6.806;2023-03-20T06:29:03;8.60;74.60
4354;DHT22;11018;51.258;6.806;2023-03-20T06:31:29;8.70;73.60
4354;DHT22;11018;51.258;6.806;2023-03-20T06:33:54;8.60;74.10
4354;DHT22;11018;51.258;6.806;2023-03-20T06:36:20;8.60;75.40
4354;DHT22;11018;51.258;6.806;2023-03-20T06:38:46;8.70;72.40
4354;DHT22;11018;51.258;6.806;2023-03-20T06:41:12;8.70;71.70
4354;DHT22;11018;51.258;6.806;2023-03-20T06:43:37;8.60;72.70
4354;DHT22;11018;51.258;6.806;2023-03-20T06:46:04;8.70;71.80
4354;DHT22;11018;51.258;6.806;2023-03-20T06:48:30;8.70;71.70
4354;DHT22;11018;51.258;6.806;2023-03-20T06:50:55;8.80;69.60
4354;DHT22;11018;51.258;6.806;2023-03-20T06:53:21;9.00;65.70
4354;DHT22;11018;51.258;6.806;2023-03-20T06:55:48;9.20;62.70
4354;DHT22;11018;51.258;6.806;2023-03-20T06:58:14;9.20;63.10
4354;DHT22;11018;51.258;6.806;2023-03-20T07:00:40;9.10;64.50
4354;DHT22;11018;51.258;6.806;2023-03-20T07:03:06;9.30;62.10
4354;DHT22;11018;51.258;6.806;2023-03-20T07:05:32;9.50;59.30
4354;DHT22;11018;51.258;6.806;2023-03-20T07:07:58;9.60;58.80
4354;DHT22;11018;51.258;6.806;2023-03-20T07:10:24;9.60;56.70
4354;DHT22;11018;51.258;6.806;2023-03-20T07:12:49;9.70;54.90
4354;DHT22;11018;51.258;6.806;2023-03-20T07:15:18;9.80;55.40
4354;DHT22;11018;51.258;6.806;2023-03-20T07:17:44;9.80;51.30
4354;DHT22;11018;51.258;6.806;2023-03-20T07:20:10;9.90;51.20
4354;DHT22;11018;51.258;6.806;2023-03-20T07:22:37;9.80;51.50
4354;DHT22;11018;51.258;6.806;2023-03-20T07:25:04;9.90;48.10
4354;DHT22;11018;51.258;6.806;2023-03-20T07:27:30;9.90;47.50
4354;DHT22;11018;51.258;6.806;2023-03-20T07:29:56;9.80;47.70
4354;DHT22;11018;51.258;6.806;2023-03-20T07:32:21;9.80;49.60
4354;DHT22;11018;51.258;6.806;2023-03-20T07:34:47;9.90;47.00
4354;DHT22;11018;51.258;6.806;2023-03-20T07:37:14;9.90;47.50
4354;DHT22;11018;51.258;6.806;2023-03-20T07:39:40;10.00;45.30
4354;DHT22;11018;51.258;6.806;2023-03-20T07:42:05;10.00;44.80
4354;DHT22;11018;51.258;6.806;2023-03-20T07:44:31;9.90;45.50
4354;DHT22;11018;51.258;6.806;2023-03-20T07:46:56;10.00;46.10
4354;DHT22;11018;51.258;6.806;2023-03-20T07:49:22;10.10;45.50
4354;DHT22;11018;51.258;6.806;2023-03-20T07:51:50;10.20;44.00
4354;DHT22;11018;51.258;6.806;2023-03-20T07:54:19;10.30;43.70
4354;DHT22;11018;51.258;6.806;2023-03-20T07:56:46;10.30;44.40
4354;DHT22;11018;51.258;6.806;2023-03-20T07:59:12;10.20;46.30
4354;DHT22;11018;51.258;6.806;2023-03-20T08:01:38;10.40;44.80
4354;DHT22;11018;51.258;6.806;2023-03-20T08:04:04;10.40;44.50
4354;DHT22;11018;51.258;6.806;2023-03-20T08:06:29;10.50;41.60
4354;DHT22;11018;51.258;6.806;2023-03-20T08:08:55;10.40;43.10
4354;DHT22;11018;51.258;6.806;2023-03-20T08:11:21;10.50;42.10
4354;DHT22;11018;51.258;6.806;2023-03-20T08:13:46;10.50;42.10
4354;DHT22;11018;51.258;6.806;2023-03-20T08:16:12;10.70;39.90
4354;DHT22;11018;51.258;6.806;2023-03-20T08:18:38;10.70;39.50
4354;DHT22;11018;51.258;6.806;2023-03-20T08:21:03;10.50;41.70
4354;DHT22;11018;51.258;6.806;2023-03-20T08:23:29;10.60;39.70
4354;DHT22;11018;51.258;6.806;2023-03-20T08:25:55;10.60;38.90
4354;DHT22;11018;51.258;6.806;2023-03-20T08:28:21;10.60;38.70
4354;DHT22;11018;51.258;6.806;2023-03-20T08:30:47;10.80;38.10
4354;DHT22;11018;51.258;6.806;2023-03-20T08:33:14;10.90;38.30
4354;DHT22;11018;51.258;6.806;2023-03-20T08:35:41;11.20;36.00
4354;DHT22;11018;51.258;6.806;2023-03-20T08:38:11;11.30;36.40
4354;DHT22;11018;51.258;6.806;2023-03-20T08:40:42;11.40;35.20
4354;DHT22;11018;51.258;6.806;2023-03-20T08:43:08;11.70;34.60
4354;DHT22;11018;51.258;6.806;2023-03-20T08:45:34;11.70;31.70
4354;DHT22;11018;51.258;6.806;2023-03-20T08:47:59;11.70;31.70
4354;DHT22;11018;51.258;6.806;2023-03-20T08:50:25;11.50;33.00
4354;DHT22;11018;51.258;6.806;2023-03-20T08:52:51;11.60;31.20
4354;DHT22;11018;51.258;6.806;2023-03-20T08:55:16;11.60;31.70
4354;DHT22;11018;51.258;6.806;2023-03-20T08:57:42;11.70;31.60
4354;DHT22;11018;51.258;6.806;2023-03-20T09:00:10;11.50;32.00
4354;DHT22;11018;51.258;6.806;2023-03-20T09:02:37;11.50;32.60
4354;DHT22;11018;51.258;6.806;2023-03-20T09:05:03;11.70;32.20
4354;DHT22;11018;51.258;6.806;2023-03-20T09:07:28;11.70;30.50
4354;DHT22;11018;51.258;6.806;2023-03-20T09:09:54;11.40;33.10
4354;DHT22;11018;51.258;6.806;2023-03-20T09:12:20;11.50;30.40
4354;DHT22;11018;51.258;6.806;2023-03-20T09:14:45;11.50;31.00
4354;DHT22;11018;51.258;6.806;2023-03-20T09:17:11;11.60;30.60
4354;DHT22;11018;51.258;6.806;2023-03-20T09:19:37;11.70;29.40
4354;DHT22;11018;51.258;6.806;2023-03-20T09:22:04;11.60;29.20
4354;DHT22;11018;51.258;6.806;2023-03-20T09:24:30;11.60;29.40
4354;DHT22;11018;51.258;6.806;2023-03-20T09:26:57;11.40;29.50
4354;DHT22;11018;51.258;6.806;2023-03-20T09:29:23;11.60;28.80
4354;DHT22;11018;51.258;6.806;2023-03-20T09:31:49;11.60;29.10
4354;DHT22;11018;51.258;6.806;2023-03-20T09:34:14;11.60;28.20
4354;DHT22;11018;51.258;6.806;2023-03-20T09:36:40;11.50;28.40
4354;DHT22;11018;51.258;6.806;2023-03-20T09:39:05;11.50;29.10
4354;DHT22;11018;51.258;6.806;2023-03-20T09:41:31;11.90;26.00
4354;DHT22;11018;51.258;6.806;2023-03-20T09:44:31;11.70;26.80
4354;DHT22;11018;51.258;6.806;2023-03-20T09:47:00;11.70;26.30
4354;DHT22;11018;51.258;6.806;2023-03-20T09:52:17;12.00;26.30
4354;DHT22;11018;51.258;6.806;2023-03-20T09:54:48;12.40;25.20
4354;DHT22;11018;51.258;6.806;2023-03-20T09:57:27;12.40;23.30
4354;DHT22;11018;51.258;6.806;2023-03-20T10:00:03;12.30;23.60
4354;DHT22;11018;51.258;6.806;2023-03-20T10:02:49;12.20;24.70
4354;DHT22;11018;51.258;6.806;2023-03-20T10:05:33;12.30;22.90
4354;DHT22;11018;51.258;6.806;2023-03-20T10:08:01;11.90;23.70
4354;DHT22;11018;51.258;6.806;2023-03-20T10:10:45;12.10;21.70
4354;DHT22;11018;51.258;6.806;2023-03-20T10:13:24;11.90;23.40
4354;DHT22;11018;51.258;6.806;2023-03-20T10:19:00;12.10;21.90
4354;DHT22;11018;51.258;6.806;2023-03-20T10:21:43;12.10;22.20
4354;DHT22;11018;51.258;6.806;2023-03-20T10:26:51;12.10;22.90
4354;DHT22;11018;51.258;6.806;2023-03-20T10:34:54;12.40;21.00
4354;DHT22;11018;51.258;6.806;2023-03-20T10:37:54;12.50;20.10
4354;DHT22;11018;51.258;6.806;2023-03-20T10:40:36;12.50;20.50
4354;DHT22;11018;51.258;6.806;2023-03-20T10:43:25;12.40;21.40
4354;DHT22;11018;51.258;6.806;2023-03-20T10:46:05;12.30;20.60
4354;DHT22;11018;51.258;6.806;2023-03-20T10:48:39;12.30;20.90
4354;DHT22;11018;51.258;6.806;2023-03-20T10:51:11;12.10;22.20
4354;DHT22;11018;51.258;6.806;2023-03-20T10:53:47;11.90;22.50
4354;DHT22;11018;51.258;6.806;2023-03-20T10:58:57;11.50;24.70
4354;DHT22;11018;51.258;6.806;2023-03-20T11:01:23;11.60;24.70
4354;DHT22;11018;51.258;6.806;2023-03-20T11:03:49;11.60;24.10
4354;DHT22;11018;51.258;6.806;2023-03-20T11:06:19;11.60;23.60
4354;DHT22;11018;51.258;6.806;2023-03-20T11:08:49;11.50;24.00
4354;DHT22;11018;51.258;6.806;2023-03-20T11:11:21;11.60;25.40
4354;DHT22;11018;51.258;6.806;2023-03-20T11:13:47;11.80;26.70
4354;DHT22;11018;51.258;6.806;2023-03-20T11:16:28;12.10;25.20
4354;DHT22;11018;51.258;6.806;2023-03-20T11:18:54;12.30;25.00
4354;DHT22;11018;51.258;6.806;2023-03-20T11:21:28;12.40;24.90
4354;DHT22;11018;51.258;6.806;2023-03-20T11:23:55;12.40;24.60
4354;DHT22;11018;51.258;6.806;2023-03-20T11:26:34;12.60;23.30
4354;DHT22;11018;51.258;6.806;2023-03-20T11:29:00;12.40;23.80
4354;DHT22;11018;51.258;6.806;2023-03-20T11:31:33;12.30;25.10
4354;DHT22;11018;51.258;6.806;2023-03-20T11:34:10;12.40;24.90
4354;DHT22;11018;51.258;6.806;2023-03-20T11:36:59;12.60;23.50
4354;DHT22;11018;51.258;6.806;2023-03-20T11:39:27;12.70;23.10
4354;DHT22;11018;51.258;6.806;2023-03-20T11:41:55;12.80;21.40
4354;DHT22;11018;51.258;6.806;2023-03-20T11:44:29;13.00;21.20
4354;DHT22;11018;51.258;6.806;2023-03-20T11:46:59;13.00;19.60
4354;DHT22;11018;51.258;6.806;2023-03-20T11:49:26;12.80;20.90
4354;DHT22;11018;51.258;6.806;2023-03-20T11:51:58;12.70;21.20
4354;DHT22;11018;51.258;6.806;2023-03-20T11:54:25;12.70;21.80
4354;DHT22;11018;51.258;6.806;2023-03-20T11:56:59;12.50;22.90
4354;DHT22;11018;51.258;6.806;2023-03-20T11:59:30;12.20;23.70
4354;DHT22;11018;51.258;6.806;2023-03-20T12:01:58;12.10;24.00
4354;DHT22;11018;51.258;6.806;2023-03-20T12:09:41;11.60;27.50
4354;DHT22;11018;51.258;6.806;2023-03-20T12:17:56;11.10;29.30
4354;DHT22;11018;51.258;6.806;2023-03-20T12:20:51;11.20;31.60
4354;DHT22;11018;51.258;6.806;2023-03-20T12:23:36;11.30;29.40
4354;DHT22;11018;51.258;6.806;2023-03-20T12:26:12;11.20;31.70
4354;DHT22;11018;51.258;6.806;2023-03-20T12:31:29;11.40;32.10
4354;DHT22;11018;51.258;6.806;2023-03-20T12:34:14;11.70;32.30
4354;DHT22;11018;51.258;6.806;2023-03-20T12:36:44;11.70;31.50
4354;DHT22;11018;51.258;6.806;2023-03-20T12:39:16;12.00;34.10
4354;DHT22;11018;51.258;6.806;2023-03-20T12:56:16;12.40;29.70
4354;DHT22;11018;51.258;6.806;2023-03-20T12:58:57;12.60;29.40
4354;DHT22;11018;51.258;6.806;2023-03-20T13:01:31;12.70;29.40
4354;DHT22;11018;51.258;6.806;2023-03-20T13:25:42;12.10;30.20
4354;DHT22;11018;51.258;6.806;2023-03-20T13:31:35;12.40;28.10
4354;DHT22;11018;51.258;6.806;2023-03-20T13:34:20;12.10;29.20
4354;DHT22;11018;51.258;6.806;2023-03-20T13:37:06;12.00;30.00
4354;DHT22;11018;51.258;6.806;2023-03-20T13:40:19;12.40;27.60
4354;DHT22;11018;51.258;6.806;2023-03-20T13:42:30;12.70;26.40
4354;DHT22;11018;51.258;6.806;2023-03-20T13:45:24;12.70;25.50
4354;DHT22;11018;51.258;6.806;2023-03-20T13:47:47;12.70;26.00
4354;DHT22;11018;51.258;6.806;2023-03-20T13:58:41;13.00;25.90
4354;DHT22;11018;51.258;6.806;2023-03-20T14:01:16;13.10;24.80
4354;DHT22;11018;51.258;6.806;2023-03-20T14:03:44;13.10;24.30
4354;DHT22;11018;51.258;6.806;2023-03-20T14:06:33;13.10;23.30
4354;DHT22;11018;51.258;6.806;2023-03-20T14:09:03;12.80;23.70
4354;DHT22;11018;51.258;6.806;2023-03-20T14:11:47;12.50;26.30
4354;DHT22;11018;51.258;6.806;2023-03-20T14:14:13;12.10;28.20
4354;DHT22;11018;51.258;6.806;2023-03-20T14:16:40;12.20;26.80
4354;DHT22;11018;51.258;6.806;2023-03-20T14:19:27;12.20;27.30
4354;DHT22;11018;51.258;6.806;2023-03-20T14:21:54;12.20;27.80
4354;DHT22;11018;51.258;6.806;2023-03-20T14:24:22;12.20;28.50
4354;DHT22;11018;51.258;6.806;2023-03-20T14:26:56;12.10;29.40
4354;DHT22;11018;51.258;6.806;2023-03-20T14:34:48;12.30;28.80
4354;DHT22;11018;51.258;6.806;2023-03-20T14:37:37;12.60;27.60
4354;DHT22;11018;51.258;6.806;2023-03-20T14:40:17;12.30;29.30
4354;DHT22;11018;51.258;6.806;2023-03-20T14:42:57;12.30;29.30
4354;DHT22;11018;51.258;6.806;2023-03-20T14:48:32;12.50;29.80
4354;DHT22;11018;51.258;6.806;2023-03-20T14:53:54;13.00;27.60
4354;DHT22;11018;51.258;6.806;2023-03-20T14:56:28;13.00;28.30
4354;DHT22;11018;51.258;6.806;2023-03-20T14:59:00;13.30;26.50
4354;DHT22;11018;51.258;6.806;2023-03-20T15:04:13;13.20;27.00
4354;DHT22;11018;51.258;6.806;2023-03-20T15:09:41;13.10;26.60
4354;DHT22;11018;51.258;6.806;2023-03-20T15:12:08;12.70;28.70
4354;DHT22;11018;51.258;6.806;2023-03-20T15:15:05;12.80;28.90
4354;DHT22;11018;51.258;6.806;2023-03-20T15:17:44;13.00;27.40
4354;DHT22;11018;51.258;6.806;2023-03-20T15:20:15;12.70;27.40
4354;DHT22;11018;51.258;6.806;2023-03-20T15:22:58;12.70;28.30
4354;DHT22;11018;51.258;6.806;2023-03-20T15:27:54;12.70;28.40
4354;DHT22;11018;51.258;6.806;2023-03-20T15:30:21;12.50;28.70
4354;DHT22;11018;51.258;6.806;2023-03-20T15:32:52;12.60;27.80
4354;DHT22;11018;51.258;6.806;2023-03-20T15:35:21;12.70;27.40
4354;DHT22;11018;51.258;6.806;2023-03-20T15:37:50;12.50;28.60
4354;DHT22;11018;51.258;6.806;2023-03-20T15:40:26;12.60;28.10
4354;DHT22;11018;51.258;6.806;2023-03-20T15:43:05;12.60;29.10
4354;DHT22;11018;51.258;6.806;2023-03-20T15:45:33;12.60;30.70
4354;DHT22;11018;51.258;6.806;2023-03-20T15:48:07;12.60;30.60
4354;DHT22;11018;51.258;6.806;2023-03-20T15:50:36;12.50;29.60
4354;DHT22;11018;51.258;6.806;2023-03-20T15:53:03;12.60;29.60
4354;DHT22;11018;51.258;6.806;2023-03-20T15:55:30;12.70;28.10
4354;DHT22;11018;51.258;6.806;2023-03-20T15:57:58;12.60;28.90
4354;DHT22;11018;51.258;6.806;2023-03-20T16:00:31;12.60;28.90
4354;DHT22;11018;51.258;6.806;2023-03-20T16:03:00;12.40;29.20
4354;DHT22;11018;51.258;6.806;2023-03-20T16:05:27;12.60;27.50
4354;DHT22;11018;51.258;6.806;2023-03-20T16:07:54;12.50;27.30
4354;DHT22;11018;51.258;6.806;2023-03-20T16:10:31;12.50;28.40
4354;DHT22;11018;51.258;6.806;2023-03-20T16:13:03;12.40;29.30
4354;DHT22;11018;51.258;6.806;2023-03-20T16:15:32;12.30;29.90
4354;DHT22;11018;51.258;6.806;2023-03-20T16:18:00;12.30;31.80
4354;DHT22;11018;51.258;6.806;2023-03-20T16:20:32;12.20;31.20
4354;DHT22;11018;51.258;6.806;2023-03-20T16:23:03;12.00;32.60
4354;DHT22;11018;51.258;6.806;2023-03-20T16:25:29;12.00;33.50
4354;DHT22;11018;51.258;6.806;2023-03-20T16:27:55;11.90;32.60
4354;DHT22;11018;51.258;6.806;2023-03-20T16:30:24;12.00;34.70
4354;DHT22;11018;51.258;6.806;2023-03-20T16:33:00;11.90;34.10
4354;DHT22;11018;51.258;6.806;2023-03-20T16:35:29;11.70;36.70
4354;DHT22;11018;51.258;6.806;2023-03-20T16:37:59;11.60;38.50
4354;DHT22;11018;51.258;6.806;2023-03-20T16:40:33;11.60;39.00
4354;DHT22;11018;51.258;6.806;2023-03-20T16:43:12;11.40;40.20
4354;DHT22;11018;51.258;6.806;2023-03-20T16:45:41;11.30;40.90
4354;DHT22;11018;51.258;6.806;2023-03-20T16:50:41;11.40;41.20
4354;DHT22;11018;51.258;6.806;2023-03-20T16:53:10;11.30;43.60
4354;DHT22;11018;51.258;6.806;2023-03-20T16:55:41;11.40;41.50
4354;DHT22;11018;51.258;6.806;2023-03-20T16:58:08;11.20;42.90
4354;DHT22;11018;51.258;6.806;2023-03-20T17:03:27;11.30;41.90
4354;DHT22;11018;51.258;6.806;2023-03-20T17:08:31;11.40;40.70
4354;DHT22;11018;51.258;6.806;2023-03-20T17:11:06;11.50;40.10
4354;DHT22;11018;51.258;6.806;2023-03-20T17:13:33;11.50;38.10
4354;DHT22;11018;51.258;6.806;2023-03-20T17:15:59;11.30;39.60
4354;DHT22;11018;51.258;6.806;2023-03-20T17:18:24;11.30;40.70
4354;DHT22;11018;51.258;6.806;2023-03-20T17:20:50;11.40;39.40
4354;DHT22;11018;51.258;6.806;2023-03-20T17:23:19;11.50;38.20
4354;DHT22;11018;51.258;6.806;2023-03-20T17:25:45;11.40;38.40
4354;DHT22;11018;51.258;6.806;2023-03-20T17:28:22;11.40;38.10
4354;DHT22;11018;51.258;6.806;2023-03-20T17:30:49;11.50;38.10
4354;DHT22;11018;51.258;6.806;2023-03-20T17:33:16;11.40;38.40
4354;DHT22;11018;51.258;6.806;2023-03-20T17:35:43;11.40;38.50
4354;DHT22;11018;51.258;6.806;2023-03-20T17:38:15;11.40;39.00
4354;DHT22;11018;51.258;6.806;2023-03-20T17:40:41;11.50;38.60
4354;DHT22;11018;51.258;6.806;2023-03-20T17:43:10;11.40;37.30
4354;DHT22;11018;51.258;6.806;2023-03-20T17:45:36;11.50;37.90
4354;DHT22;11018;51.258;6.806;2023-03-20T17:48:01;11.40;38.40
4354;DHT22;11018;51.258;6.806;2023-03-20T17:50:27;11.50;36.80
4354;DHT22;11018;51.258;6.806;2023-03-20T17:52:53;11.50;36.70
4354;DHT22;11018;51.258;6.806;2023-03-20T17:55:19;11.40;37.80
4354;DHT22;11018;51.258;6.806;2023-03-20T17:57:45;11.30;38.00
4354;DHT22;11018;51.258;6.806;2023-03-20T18:00:20;11.30;36.60
4354;DHT22;11018;51.258;6.806;2023-03-20T18:02:46;11.20;36.60
4354;DHT22;11018;51.258;6.806;2023-03-20T18:05:12;11.20;37.50
4354;DHT22;11018;51.258;6.806;2023-03-20T18:07:37;11.30;36.10
4354;DHT22;11018;51.258;6.806;2023-03-20T18:10:11;11.40;35.20
4354;DHT22;11018;51.258;6.806;2023-03-20T18:12:39;11.40;34.60
4354;DHT22;11018;51.258;6.806;2023-03-20T18:15:05;11.20;35.50
4354;DHT22;11018;51.258;6.806;2023-03-20T18:17:30;11.20;36.00
4354;DHT22;11018;51.258;6.806;2023-03-20T18:19:56;11.30;35.40
4354;DHT22;11018;51.258;6.806;2023-03-20T18:22:21;11.30;35.90
4354;DHT22;11018;51.258;6.806;2023-03-20T18:24:47;11.20;35.60
4354;DHT22;11018;51.258;6.806;2023-03-20T18:27:13;11.40;35.40
4354;DHT22;11018;51.258;6.806;2023-03-20T18:29:38;11.30;34.90
4354;DHT22;11018;51.258;6.806;2023-03-20T18:32:04;11.40;35.40
4354;DHT22;11018;51.258;6.806;2023-03-20T18:34:29;11.40;35.00